Ride Results

Gulgong Gold Rush (05-09-2004)
Ride distance: 80.0 km

Outcomes - Gulgong Gold Rush (05-09-2004)
Division No. of Entries Retired / DNE Completed Withdrawn Ineligible V/O Percentage Completed
HW 25 - 18 1 - 6 72.00%
MW 38 - 30 - - 8 78.95%
LW 24 - 20 1 - 3 83.33%
JN 13 - 10 1 - 2 76.92%
Totals 100 - 78 3 - 19 78.00%
Results - Gulgong Gold Rush (05-09-2004)
No. Rider Horse Place Time Leg Speeds Total
Km/Hr
H/R bpm
Heavyweight
223 Kristianne Kalen Carnarvon Kasserine Magic 1 (BC) 3:41:00 25.8, 18.7 21.72 42, 38, 38 (Avg:38)
202 Bern Harvey Nankeen Nazaar 2 4:39:00 25.8, 12.9 17.20 34, 40, 46 (Avg:43)
209 Peter Cole Coolahlee Park Anka 3 4:39:05 18.8, 15.7 17.20 40, 42, 46 (Avg:44)
210 Virginia Blain Naqawah 4 5:05:00 24.9, 11.4 15.74 34, 47, 50 (Avg:48)
206 Michael Boland Tarkhim Shar Sheikara 5 5:05:01 18.0, 13.9 15.74 36, 34, 49 (Avg:41)
217 Peter Bonham Box Hill Tonderburine 6 5:26:00 18.7, 12.1 14.72 32, 44, 46 (Avg:45)
207 Laeli Hogan Follydown Flintstone 7 5:38:01 17.5, 11.9 14.20 38, 48, 46 (Avg:47)
216 Damien Bonham Box Hill Jezabel 8 5:47:00 18.3, 11.1 13.83 36, 42, 50 (Avg:46)
222 Peter Cooper Marneross Just Jazz 9 6:00:01 13.3, 13.3 13.33 32, 34, 46 (Avg:40)
204 Julie Dixon Cinda 10 6:02:00 15.0, 11.8 13.26 34, 38, 48 (Avg:43)
224 Anthony Blessing Snr Jamar Cheeky 11 6:06:00 13.0, 13.1 13.11 38, 32, 52 (Avg:42)
200 John Howe Glen Echo Buddy 12 6:15:00 14.2, 11.6 12.80 34, 39, 41 (Avg:40)
205 Frank Mollema Churinga Kagebee 13 6:31:00 13.1, 11.4 12.28 36, 48, 49 (Avg:48)
218 John Dawson Vision Khaalid 14 6:43:00 12.9, 11.0 11.91 38, 34, 0 (Avg:17)
219 Haydn Fisher Killibinbin Rhadames 15 6:44:00 12.9, 10.9 11.88 42, 42, 46 (Avg:44)
215 Andrew Bailey Ralvon Vim 16 6:58:00 13.1, 10.2 11.48 40, 44, 50 (Avg:47)
211 Eric Cauchi Wantley Silver Sky 17 7:14:00 13.2, 9.4 11.06 44, 44, 44 (Avg:44)
220 Len Derkacz Torryburn Rahal 18 8:06:00 12.7, 8.0 9.88 34, 40, 48 (Avg:44)
203 Colin Edwards Sundeck Eden Lame L2 0:00:00 14.9, 8.7 - 44, 40, 52 (Avg:46)
221 Wayne Johnson Mindari Quicksilver Lame L2 0:00:00 12.7, 8.0 - 44, 43, 45 (Avg:44)
214 Raymond Smith River Oak Amir El Sabbah Lame L2 0:00:00 22.4, 3.3 - 0, 48, 48 (Avg:48)
208 Gaire Blunt Ningadoo Kaikoura Gall or injury L1 0:00:00 13.7 - 40, 47 (Avg:47)
201 Helen Cameron Peppersfield Abdel Gall or injury L1 0:00:00 25.8 - 42, 42 (Avg:42)
213 Jason Duff Peppersfield Aladin Lame L1 0:00:00 13.1 - 28, 40 (Avg:40)
212 Rod Mitchell Aloha Lahib Withdrawn L1 0:00:00 - - 38, 42 (Avg:42)
Middleweight
133 Rene Schipper Pactberk 1 3:34:00 25.8, 19.8 22.43 40, 43, 42 (Avg:42)
122 Meg Wade Castlebar Macleod 2 (BC) 3:41:00 22.8, 20.6 21.72 42, 38, 42 (Avg:40)
125 Roy Counsell Castlebar Chandon 3 3:41:01 22.6, 20.8 21.72 42, 38, 41 (Avg:39)
123 Renee Kirk Parlour Mountain Helen 3 3:41:01 22.6, 20.8 21.72 40, 40, 44 (Avg:42)
110 David Player Amiri Sundance 5 3:52:00 24.7, 17.7 20.69 34, 34, 46 (Avg:40)
124 Corey Nix Castlebar Chopard 6 4:25:00 17.6, 18.6 18.11 36, 40, 44 (Avg:42)
119 James Cleary Shahwan Park Elf 7 4:56:00 21.8, 12.9 16.22 34, 42, 47 (Avg:44)
103 Margaret Boland Iviore 8 5:05:02 18.0, 13.9 15.74 34, 30, 36 (Avg:33)
117 Leanne Le Claire Aloha Kamahl 9 5:09:00 18.8, 13.1 15.53 32, 34, 46 (Avg:40)
128 Steven Haasz The Gambler 10 5:27:00 26.0, 10.2 14.68 34, 40, 44 (Avg:42)
126 Sonia Bonham Box Hill Saintly 11 5:47:00 18.1, 11.1 13.83 38, 34, 37 (Avg:35)
100 Lauren Mitchell Rusty 12 6:07:00 16.2, 10.9 13.08 38, 38, 44 (Avg:41)
137 Paul Keyes Sas Alexis 13 6:07:02 13.1, 12.9 13.08 38, 40, 46 (Avg:43)
111 Christopher Sultana Lynroy Azzim Safar 14 6:25:00 13.0, 11.9 12.47 34, 34, 44 (Avg:39)
113 Brett Willis Kairo 15 6:35:00 13.2, 11.2 12.15 46, 44, 46 (Avg:45)
109 Bernice King Doralmir Park Nicholas 16 6:38:00 14.5, 10.3 12.06 44, 45, 54 (Avg:49)
116 Gail Fisher Princess Brandy Twice-Over 17 6:44:00 12.9, 10.9 11.88 44, 46, 46 (Avg:46)
106 Ben Caslick Ningadoo Milan 18 6:46:00 13.3, 10.6 11.82 42, 44, 46 (Avg:45)
118 Alex Baczocha Dolina Jasmika 19 6:50:00 13.1, 10.5 11.71 44, 50, 58 (Avg:54)
107 Ron Males Orlando 20 6:50:01 13.0, 10.6 11.71 36, 36, 40 (Avg:38)
136 Anthony Geyteman Santa Padova Tiffany 21 6:56:00 12.6, 10.5 11.54 34, 45, 52 (Avg:48)
121 Annette Bailey Rosemont Pathfinder 22 6:58:00 13.1, 10.2 11.48 44, 40, 36 (Avg:38)
108 Peter Strickland Emir De Sombre 23 7:01:00 14.2, 9.4 11.40 44, 48, 48 (Avg:48)
131 Cheryl Strachan Pinehill Arandel 24 7:11:00 13.0, 9.7 11.14 38, 42, 57 (Avg:49)
130 Jo Bailey Hollydale Nazareth 25 7:12:00 13.0, 9.6 11.11 42, 46, 50 (Avg:48)
132 Dean Walkom Star of Persia 26 7:29:00 12.4, 9.3 10.69 48, 46, 46 (Avg:46)
129 Jas Crafter Aussie Delight 27 8:08:00 10.5, 9.1 9.84 44, 46, 46 (Avg:46)
112 Allison Knihinicki Naz-ton Crystal Teardrop 27 8:08:00 10.5, 9.2 9.84 40, 36, 44 (Avg:40)
114 Jessica Richards Clovelly Park Milawa 29 8:35:00 11.9, 7.6 9.32 44, 39, 36 (Avg:37)
105 Claudia Reid Ningadoo Taban 30 9:00:00 26.0, 5.3 8.89 36, 33, 40 (Avg:36)
115 Rhiannon Groth Abrock Comma Lame L2 0:00:00 22.4, 3.6 - 34, 43, 44 (Avg:43)
134 Duncan Satchell Peppermint Springs Ladino Lame L2 0:00:00 14.5, 3.0 - 44, 44, 50 (Avg:47)
120 Donna Tidswell Bula Park Tristrim Lame L2 0:00:00 13.1, 10.2 - 32, 35, 44 (Avg:39)
102 Ruth Van der Wegen Attallah Barcoo Lame L2 0:00:00 14.6, 2.8 - 34, 36, 36 (Avg:36)
101 Thomas Hermann Dantes Deliverence Lame L1 0:00:00 2.2 - 38, 0 (Avg:0)
104 Marita Rifai Premium Lame L1 0:00:00 2.2 - 40, 0 (Avg:0)
127 Mark Harding Jon-De-Le Begin Lame P/R 0:00:00 - - 38
135 Allana Rempel Claremont Park Breanne Lame P/R 0:00:00 - - 36
Lightweight
57 Megan O'Connor Cudglebar Gold 1 4:39:03 22.6, 13.8 17.20 38, 38, 47 (Avg:42)
66 Lee Duff Aloha Ambassador 2 (BC) 4:46:00 18.1, 15.5 16.78 36, 37, 45 (Avg:41)
61 Dianne Luker Topline Sophine 3 5:11:00 17.9, 13.5 15.43 40, 34, 46 (Avg:40)
54 Jo Arblaster Silver 'N' Blue 4 5:38:00 17.2, 12.0 14.20 38, 42, 48 (Avg:45)
51 Lisa Keyes Coolahlee Park Sarah 5 6:07:01 14.6, 11.8 13.08 36, 44, 40 (Avg:42)
68 Carly Nix Castlebar Janzen 6 6:08:00 12.9, 13.1 13.04 50, 42, 38 (Avg:40)
71 Taeko Hirai Alhambra Mirage 7 6:15:01 14.5, 11.4 12.80 40, 38, 40 (Avg:39)
63 Fiona Groth Ceda 8 6:31:01 13.1, 11.5 12.28 40, 38, 40 (Avg:39)
60 Carol Griffiths Oak-Glen Solitaire 9 6:31:03 13.2, 11.4 12.27 40, 31, 38 (Avg:34)
64 Kate Campbell One Eye Quintex 10 6:35:00 13.1, 11.2 12.15 36, 33, 36 (Avg:34)
69 Jennifer Annetts Tallawarra Chance 11 6:43:00 15.0, 9.8 11.91 44, 40, 46 (Avg:43)
58 Shan Symons Ningadoo Ambitious 12 6:46:00 13.2, 10.6 11.82 40, 50, 59 (Avg:54)
59 Jacinda Somerville Aloha Titanic 13 6:56:01 12.7, 10.5 11.54 35, 40, 44 (Avg:42)
67 Nikki Tucker Sanlargo Mystique 14 6:58:00 13.1, 10.2 11.48 34, 39, 42 (Avg:40)
52 Kelly Christianson Montville Abigail 15 7:25:00 12.9, 9.2 10.79 38, 38, 46 (Avg:42)
65 Sue Richards Freddie 16 8:04:00 11.9, 8.4 9.92 40, 46, 49 (Avg:47)
70 Neroli Mitchell- Cooper Ralvon Ramamm 17 8:08:00 10.5, 9.2 9.84 40, 42, 48 (Avg:45)
72 Jacqui Reeves Aloha Lahib 17 8:08:00 13.2, 7.8 9.84 40, 36, 0 (Avg:18)
56 Jacky Barlow Heste Arabique Waterloo 19 8:15:00 14.3, 7.3 9.70 42, 46, 48 (Avg:47)
62 Kim Boyland Miss Saigon 20 9:00:00 26.3, 5.3 8.89 40, 42, 42 (Avg:42)
53 Greta D'Cruz Annewin Belina Gall or injury L1 0:00:00 14.9 - 36, 42 (Avg:42)
55 Sarah Hetherington Callyvah Sahara Withdrawn P/R 0:00:00 - - 40
73 Wendy Jones Credo King of Jordan Lame P/R 0:00:00 - - 40
50 Johanna Yule Horse Rescue Yasmin Metabolics P/R 0:00:00 - - 42
Junior
3 Luke Harvey Hammer 1 (BC) 4:39:00 22.6, 13.8 17.20 38, 39, 45 (Avg:42)
1 Sharna Harvey Box Hill Breaker 1 4:39:00 22.6, 13.8 17.20 43, 43, 48 (Avg:45)
13 Allix Jones Shellal Cattle King Flyte 3 6:00:00 13.3, 13.3 13.33 36, 50, 50 (Avg:50)
11 Brooke Warner Kobarda's Jacq of Time 3 6:00:00 13.3, 13.3 13.33 40, 40, 40 (Avg:40)
6 Matthew Groth Bronte 5 6:31:02 13.1, 11.4 12.28 36, 50, 44 (Avg:47)
5 Brad Randall Springmead Felix 6 6:50:00 13.0, 10.6 11.71 40, 44, 41 (Avg:42)
10 Narelle Walkom Elle Espirit 7 7:29:00 12.4, 9.3 10.69 32, 36, 40 (Avg:38)
2 Rochelle Knihinicki Tuldar Jonathon 8 8:08:00 10.5, 9.2 9.84 36, 36, 39 (Avg:37)
7 Brianna Webb Ashbrook Ellegance 9 8:08:03 10.5, 9.1 9.84 36, 42, 46 (Avg:44)
12 Shelley Jones Rise 'N' Shine 10 9:00:00 26.3, 5.3 8.89 36, 44, 44 (Avg:44)
9 Christie Chapman Jamar Jesse James Lame L2 0:00:00 12.9, 3.0 - 30, 40, 42 (Avg:41)
8 Tami Parnell Tallawarra Spy Withdrawn L2 0:00:00 - - 38, 44, 50 (Avg:47)
4 Jamie Mollema Harmere Sirikit Gall or injury L1 0:00:00 2.2 - 40, 0 (Avg:0)